createdAt,value
2022-11-19T00:00:02.000Z,95716
2022-11-19T00:05:02.000Z,95728
2022-11-19T00:10:02.000Z,95722
2022-11-19T00:15:02.000Z,95729
2022-11-19T00:20:02.000Z,95725
2022-11-19T00:25:02.000Z,95725
2022-11-19T00:45:02.000Z,95713
2022-11-19T00:50:02.000Z,95722
2022-11-19T00:55:02.000Z,95723
2022-11-19T01:00:02.000Z,95724
2022-11-19T01:05:02.000Z,95741
2022-11-19T01:10:02.000Z,95752
2022-11-19T01:15:02.000Z,95753
2022-11-19T01:20:02.000Z,95761
2022-11-19T01:25:02.000Z,95770
2022-11-19T01:30:02.000Z,95766
2022-11-19T01:35:02.000Z,95774
2022-11-19T01:40:02.000Z,95778
2022-11-19T01:45:02.000Z,95783
2022-11-19T01:50:02.000Z,95785
2022-11-19T01:55:02.000Z,95782
2022-11-19T02:00:02.000Z,95775
2022-11-19T02:05:02.000Z,95781
2022-11-19T02:10:02.000Z,95779
2022-11-19T02:15:02.000Z,95784
2022-11-19T02:20:02.000Z,95770
2022-11-19T02:25:02.000Z,95763
2022-11-19T02:30:02.000Z,95769
2022-11-19T02:35:02.000Z,95771
2022-11-19T02:40:02.000Z,95784
2022-11-19T02:45:02.000Z,95779
2022-11-19T02:50:02.000Z,95794
2022-11-19T02:55:02.000Z,95796
2022-11-19T03:00:02.000Z,95788
2022-11-19T03:05:02.000Z,95792
2022-11-19T03:10:02.000Z,95787
2022-11-19T03:15:02.000Z,95778
2022-11-19T03:20:02.000Z,95778
2022-11-19T03:25:02.000Z,95783
2022-11-19T03:30:02.000Z,95788
2022-11-19T03:35:02.000Z,95782
2022-11-19T03:40:02.000Z,95780
2022-11-19T03:45:02.000Z,95776
2022-11-19T03:50:02.000Z,95774
2022-11-19T03:55:02.000Z,95778
2022-11-19T04:00:02.000Z,95773
2022-11-19T04:05:02.000Z,95769
2022-11-19T04:10:02.000Z,95769
2022-11-19T04:15:02.000Z,95763
2022-11-19T04:20:02.000Z,95763
2022-11-19T04:25:02.000Z,95779
2022-11-19T04:30:02.000Z,95780
2022-11-19T04:35:02.000Z,95772
2022-11-19T04:40:02.000Z,95778
2022-11-19T04:45:02.000Z,95773
2022-11-19T04:50:02.000Z,95786
2022-11-19T04:55:02.000Z,95791
2022-11-19T05:00:02.000Z,95785
2022-11-19T05:05:02.000Z,95782
2022-11-19T05:10:02.000Z,95782
2022-11-19T05:15:02.000Z,95785
2022-11-19T05:20:02.000Z,95775
2022-11-19T05:25:02.000Z,95776
2022-11-19T05:30:02.000Z,95772
2022-11-19T05:35:02.000Z,95781
2022-11-19T05:40:02.000Z,95788
2022-11-19T05:45:02.000Z,95792
2022-11-19T05:50:02.000Z,95792
2022-11-19T05:55:02.000Z,95796
2022-11-19T06:00:02.000Z,95811
2022-11-19T06:05:02.000Z,95808
2022-11-19T06:10:02.000Z,95803
2022-11-19T06:15:02.000Z,95812
2022-11-19T06:20:02.000Z,95823
2022-11-19T06:25:02.000Z,95824
2022-11-19T06:30:02.000Z,95830
2022-11-19T06:35:02.000Z,95840
2022-11-19T06:40:02.000Z,95833
2022-11-19T06:45:02.000Z,95854
2022-11-19T06:50:02.000Z,95851
2022-11-19T06:55:02.000Z,95863
2022-11-19T07:00:02.000Z,95867
2022-11-19T07:05:02.000Z,95878
2022-11-19T07:10:02.000Z,95888
2022-11-19T07:15:02.000Z,95885
2022-11-19T07:20:02.000Z,95893
2022-11-19T07:25:02.000Z,95886
2022-11-19T07:30:02.000Z,95884
2022-11-19T07:35:02.000Z,95883
2022-11-19T07:40:02.000Z,95887
2022-11-19T07:45:02.000Z,95892
2022-11-19T07:50:02.000Z,95898
2022-11-19T07:55:02.000Z,95905
2022-11-19T08:00:02.000Z,95907
2022-11-19T08:05:02.000Z,95910
2022-11-19T08:10:02.000Z,95911
2022-11-19T08:15:02.000Z,95919
2022-11-19T08:20:02.000Z,95922
2022-11-19T08:25:02.000Z,95910
2022-11-19T08:30:02.000Z,95914
2022-11-19T08:35:02.000Z,95925
2022-11-19T08:40:02.000Z,95920
2022-11-19T08:45:02.000Z,95926
2022-11-19T08:50:02.000Z,95939
2022-11-19T08:55:02.000Z,95931
2022-11-19T09:00:02.000Z,95938
2022-11-19T09:05:02.000Z,95944
2022-11-19T09:10:02.000Z,95944
2022-11-19T09:15:02.000Z,95942
2022-11-19T09:20:02.000Z,95945
2022-11-19T09:25:02.000Z,95938
2022-11-19T09:30:02.000Z,95944
2022-11-19T09:35:02.000Z,95937
2022-11-19T09:40:02.000Z,95946
2022-11-19T09:45:02.000Z,95931
2022-11-19T09:50:02.000Z,95932
2022-11-19T09:55:02.000Z,95929
2022-11-19T10:00:02.000Z,95929
2022-11-19T10:05:02.000Z,95928
2022-11-19T10:10:02.000Z,95923
2022-11-19T10:15:02.000Z,95923
2022-11-19T10:20:02.000Z,95923
2022-11-19T10:25:02.000Z,95924
2022-11-19T10:30:02.000Z,95927
2022-11-19T10:35:02.000Z,95921
2022-11-19T10:40:02.000Z,95920
2022-11-19T10:45:02.000Z,95917
2022-11-19T10:50:02.000Z,95926
2022-11-19T10:55:02.000Z,95917
2022-11-19T11:00:02.000Z,95909
2022-11-19T11:05:02.000Z,95906
2022-11-19T11:10:02.000Z,95895
2022-11-19T11:15:02.000Z,95894
2022-11-19T11:20:02.000Z,95880
2022-11-19T11:25:02.000Z,95885
2022-11-19T11:30:02.000Z,95874
2022-11-19T11:35:02.000Z,95870
2022-11-19T11:40:02.000Z,95872
2022-11-19T11:45:02.000Z,95868
2022-11-19T11:50:02.000Z,95865
2022-11-19T11:55:02.000Z,95845
2022-11-19T12:00:02.000Z,95848
2022-11-19T12:05:02.000Z,95845
2022-11-19T12:10:02.000Z,95850
2022-11-19T12:15:02.000Z,95840
2022-11-19T12:20:02.000Z,95849
2022-11-19T12:25:02.000Z,95848
2022-11-19T12:30:02.000Z,95844
2022-11-19T12:35:02.000Z,95836
2022-11-19T12:40:02.000Z,95840
2022-11-19T12:45:02.000Z,95835
2022-11-19T12:50:02.000Z,95836
2022-11-19T12:55:02.000Z,95845
2022-11-19T13:00:02.000Z,95843
2022-11-19T13:05:02.000Z,95842
2022-11-19T13:10:02.000Z,95850
2022-11-19T13:15:02.000Z,95839
2022-11-19T13:20:02.000Z,95844
2022-11-19T13:25:02.000Z,95843
2022-11-19T13:30:02.000Z,95845
2022-11-19T13:35:02.000Z,95844
2022-11-19T13:40:02.000Z,95839
2022-11-19T13:45:02.000Z,95842
2022-11-19T13:50:02.000Z,95848
2022-11-19T13:55:02.000Z,95852
2022-11-19T14:00:02.000Z,95845
2022-11-19T14:05:02.000Z,95843
2022-11-19T14:10:02.000Z,95849
2022-11-19T14:15:02.000Z,95844
2022-11-19T14:20:02.000Z,95850
2022-11-19T14:25:02.000Z,95855
2022-11-19T14:30:02.000Z,95866
2022-11-19T14:35:02.000Z,95872
2022-11-19T14:40:02.000Z,95862
2022-11-19T14:45:02.000Z,95865
2022-11-19T14:50:02.000Z,95868
2022-11-19T14:55:02.000Z,95875
2022-11-19T15:00:02.000Z,95869
2022-11-19T15:05:02.000Z,95874
2022-11-19T15:10:02.000Z,95880
2022-11-19T15:15:02.000Z,95881
2022-11-19T15:20:02.000Z,95874
2022-11-19T15:25:02.000Z,95882
2022-11-19T15:30:02.000Z,95887
2022-11-19T15:35:02.000Z,95881
2022-11-19T15:40:02.000Z,95885
2022-11-19T15:45:02.000Z,95881
2022-11-19T15:50:02.000Z,95870
2022-11-19T15:55:02.000Z,95884
2022-11-19T16:00:02.000Z,95893
2022-11-19T16:05:02.000Z,95894
2022-11-19T16:10:02.000Z,95903
2022-11-19T16:15:02.000Z,95908
2022-11-19T16:20:02.000Z,95912
2022-11-19T16:25:02.000Z,95910
2022-11-19T16:30:02.000Z,95924
2022-11-19T16:35:02.000Z,95934
2022-11-19T16:40:02.000Z,95929
2022-11-19T16:45:02.000Z,95930
2022-11-19T16:50:02.000Z,95930
2022-11-19T16:55:02.000Z,95943
2022-11-19T17:00:02.000Z,95932
2022-11-19T17:05:02.000Z,95954
2022-11-19T17:10:02.000Z,95951
2022-11-19T17:15:02.000Z,95958
2022-11-19T17:20:02.000Z,95959
2022-11-19T17:25:02.000Z,95959
2022-11-19T17:30:02.000Z,95971
2022-11-19T17:35:02.000Z,95963
2022-11-19T17:40:02.000Z,95970
2022-11-19T17:45:02.000Z,95977
2022-11-19T17:50:02.000Z,95978
2022-11-19T17:55:02.000Z,95982
2022-11-19T18:00:02.000Z,95991
2022-11-19T18:05:02.000Z,95998
2022-11-19T18:10:02.000Z,95996
2022-11-19T18:15:02.000Z,96008
2022-11-19T18:20:02.000Z,96020
2022-11-19T18:25:02.000Z,96010
2022-11-19T18:30:02.000Z,96022
2022-11-19T18:35:02.000Z,96032
2022-11-19T18:40:02.000Z,96038
2022-11-19T18:45:02.000Z,96034
2022-11-19T18:50:02.000Z,96027
2022-11-19T18:55:02.000Z,96033
2022-11-19T19:00:02.000Z,96041
2022-11-19T19:05:02.000Z,96044
2022-11-19T19:10:02.000Z,96048
2022-11-19T19:15:03.000Z,96050
2022-11-19T19:20:03.000Z,96051
2022-11-19T19:25:03.000Z,96061
2022-11-19T19:30:03.000Z,96055
2022-11-19T19:35:03.000Z,96064
2022-11-19T19:40:03.000Z,96062
2022-11-19T19:45:03.000Z,96066
2022-11-19T19:50:03.000Z,96058
2022-11-19T19:55:03.000Z,96082
2022-11-19T20:00:03.000Z,96078
2022-11-19T20:05:03.000Z,96067
2022-11-19T20:10:03.000Z,96079
2022-11-19T20:15:03.000Z,96079
2022-11-19T20:20:03.000Z,96080
2022-11-19T20:25:03.000Z,96084
2022-11-19T20:30:03.000Z,96083
2022-11-19T20:35:03.000Z,96078
2022-11-19T20:40:03.000Z,96077
2022-11-19T20:45:03.000Z,96082
2022-11-19T20:50:03.000Z,96081
2022-11-19T20:55:03.000Z,96083
2022-11-19T21:00:03.000Z,96085
2022-11-19T21:05:03.000Z,96082
2022-11-19T21:10:03.000Z,96075
2022-11-19T21:15:03.000Z,96094
2022-11-19T21:20:03.000Z,96090
2022-11-19T21:25:03.000Z,96094
2022-11-19T21:30:03.000Z,96081
2022-11-19T21:35:03.000Z,96086
2022-11-19T21:40:03.000Z,96091
2022-11-19T21:45:03.000Z,96094
2022-11-19T21:50:03.000Z,96090
2022-11-19T21:55:03.000Z,96086
2022-11-19T22:00:03.000Z,96091
2022-11-19T22:05:03.000Z,96090
2022-11-19T22:10:03.000Z,96093
2022-11-19T22:15:03.000Z,96089
2022-11-19T22:20:03.000Z,96102
2022-11-19T22:25:03.000Z,96103
2022-11-19T22:30:03.000Z,96102
2022-11-19T22:35:03.000Z,96101
2022-11-19T22:40:03.000Z,96102
2022-11-19T22:45:03.000Z,96100
2022-11-19T22:50:03.000Z,96112
2022-11-19T22:55:03.000Z,96115
2022-11-19T23:00:03.000Z,96112
2022-11-19T23:05:03.000Z,96114
2022-11-19T23:10:03.000Z,96108
2022-11-19T23:15:03.000Z,96110
2022-11-19T23:20:03.000Z,96111
2022-11-19T23:25:03.000Z,96120
2022-11-19T23:30:03.000Z,96120
2022-11-19T23:35:03.000Z,96123
2022-11-19T23:40:03.000Z,96131
2022-11-19T23:45:03.000Z,96122
2022-11-19T23:50:03.000Z,96116
2022-11-19T23:55:03.000Z,96121
